To NAV CANADA Home Page Login to a new session Search on AWWS site Feedback and Comments Disclaimer Vers la page française équivalente Tips FAQ What's new on the site To the Forecasts and Observations / NOTAM section To "File a Flight Plan" website Publications and other links Update of the User's profile FIC Telephone Numbers My Weather Data Folder Route Weather Data Regional Weather Data Local Weather Data To the Forecasts and Observations / NOTAM section
Request Generated 06/26/2017 at 22:36:21 UTC . Weather information available at that time is displayed.

METAR/TAF

MEDICINE HAT/AB    (show WxCam)

METAR CYXH 262200Z 19016G24KT 30SM OVC270 32/08 A2970 RMK CI8 SLP047
DENSITY ALT 5100FT=
METAR CYXH 262100Z 18019G28KT 30SM BKN270 32/07 A2973 RMK CI7 SLP057
DENSITY ALT 5100FT=
METAR CYXH 262000Z 18019G27KT 30SM BKN270 32/07 A2975 RMK CI7 SLP064
DENSITY ALT 5000FT=
SPECI CYXH 262001Z 18020G27KT 30SM BKN290 32/07 A2975 RMK CI7 SLP063
DENSITY ALT 5000FT=

TAF CYXH 261748Z 2618/2706 18008KT P6SM FEW150 SCT300
BECMG 2618/2620 21015G25KT
FM270000 22012KT P6SM FEW100 SCT200
RMK NXT FCST BY 270000Z=
Your time UTC time
Weather data provided by Environment Canada and NAV CANADA